Terminal Aerodrome Forecast
Issued by NWS

Home | Current Version | Previous Version | Text Only | Print | Product List | Glossary On
Versions: 1 2 3 4 5 6 7 8 9 10 11 12 13 14 15 16 17 18 19
000
FTUS43 KSGF 012300 RRA
TAFJLN
TAF
KJLN 012338Z 0200/0224 18015G22KT P6SM SCT015 BKN250
     FM021200 21012KT 5SM SHRA VCTS SCT005 OVC010CB
     FM021800 23010KT P6SM VCSH BKN020 OVC030 PROB30 0218/0224 5SM
      TSRA BR OVC020CB=

USA.gov is the U.S. government's official web portal to all federal, state and local government web resources and services.